Time;durP1;ratioP1;P1;durP2;ratioP2;P2;SDS_P1;SDS_P2;PMS_P1;PMS_P2;Temp;Humidity;BMP_temperature;BMP_pressure;BME280_temperature;BME280_humidity;BME280_pressure;Samples;Min_cycle;Max_cycle;Signal;HPM_P1;HPM_P2
2021/12/28 00:01:07;;;;;;;;;0.67;0.67;;;;;11.80;74.06;98850.41;5027913;28;45290;-46
2021/12/28 00:03:34;;;;;;;;;0.00;0.00;;;;;11.79;73.90;98843.44;5032352;28;45266;-47
2021/12/28 00:06:00;;;;;;;;;0.67;0.33;;;;;11.78;73.76;98818.03;5062703;28;45271;-47
2021/12/28 00:08:25;;;;;;;;;0.00;0.00;;;;;11.77;74.03;98820.75;5063092;28;45294;-49
2021/12/28 00:10:52;;;;;;;;;1.00;1.00;;;;;11.79;74.07;98818.91;5044508;28;45364;-46
2021/12/28 00:13:18;;;;;;;;;2.75;1.00;;;;;11.79;73.93;98809.22;5062740;28;45379;-47
2021/12/28 00:18:23;;;;;;;;;1.75;1.00;;;;;11.85;73.84;98808.09;5062617;28;45283;-48
2021/12/28 00:20:52;;;;;;;;;2.50;2.00;;;;;11.82;73.78;98806.47;5062519;28;45644;-51
2021/12/28 00:23:20;;;;;;;;;2.50;0.00;;;;;11.83;73.95;98804.66;5062414;28;46112;-51
2021/12/28 00:25:48;;;;;;;;;0.33;0.00;;;;;11.85;73.84;98805.44;5062339;28;45273;-48
2021/12/28 00:28:14;;;;;;;;;0.00;0.00;;;;;11.84;73.92;98803.75;5062710;28;45463;-50
2021/12/28 00:30:40;;;;;;;;;0.50;0.50;;;;;11.84;73.75;98801.09;5037610;28;45423;-51
2021/12/28 00:33:06;;;;;;;;;1.00;1.00;;;;;11.83;73.93;98800.25;5043961;28;46215;-50
2021/12/28 00:35:34;;;;;;;;;1.25;0.25;;;;;11.83;73.94;98804.66;5062354;28;45376;-49
2021/12/28 00:38:01;;;;;;;;;1.00;1.00;;;;;11.83;74.23;98802.88;5042204;28;45380;-48
2021/12/28 00:40:27;;;;;;;;;0.75;0.75;;;;;11.82;74.15;98801.19;5041828;28;45385;-49
2021/12/28 00:42:52;;;;;;;;;1.00;0.00;;;;;11.83;73.87;98794.97;5007590;28;47332;-50
2021/12/28 00:45:18;;;;;;;;;0.00;0.00;;;;;11.77;74.12;98790.03;5007503;28;45207;-51
2021/12/28 00:47:44;;;;;;;;;1.00;1.00;;;;;11.82;74.24;98795.06;5042021;28;45419;-49
2021/12/28 00:50:11;;;;;;;;;1.50;1.50;;;;;11.82;74.27;98792.44;5042120;28;45218;-50
2021/12/28 00:52:37;;;;;;;;;1.00;0.67;;;;;11.81;74.37;98782.81;5024076;28;45495;-50
2021/12/28 00:55:05;;;;;;;;;1.00;0.00;;;;;11.83;74.23;98786.25;5023143;28;45536;-50
2021/12/28 00:57:31;;;;;;;;;1.00;0.00;;;;;11.80;74.50;98781.16;5024132;28;45370;-47
2021/12/28 00:59:56;;;;;;;;;0.00;0.00;;;;;11.80;74.37;98794.31;5041627;28;45242;-50
2021/12/28 01:02:22;;;;;;;;;0.67;0.67;;;;;11.80;74.31;98786.41;5041608;28;46325;-49
2021/12/28 01:04:48;;;;;;;;;0.00;0.00;;;;;11.82;74.37;98793.31;5041539;28;45431;-49
2021/12/28 01:07:13;;;;;;;;;0.00;0.00;;;;;11.84;74.04;98803.75;5024021;28;45302;-47
2021/12/28 01:09:41;;;;;;;;;0.50;0.50;;;;;11.83;74.39;98802.03;5041476;28;45256;-53
2021/12/28 01:12:07;;;;;;;;;0.00;0.00;;;;;11.87;74.21;98803.56;5023763;28;46866;-51
2021/12/28 01:14:33;;;;;;;;;0.00;0.00;;;;;11.83;74.22;98800.25;5023527;28;45322;-48
2021/12/28 01:16:59;;;;;;;;;0.50;0.50;;;;;11.86;74.34;98788.72;5023588;28;45385;-49
2021/12/28 01:19:25;;;;;;;;;0.00;0.00;;;;;11.82;74.16;98798.56;5041442;28;45355;-49
2021/12/28 01:21:51;;;;;;;;;0.67;0.67;;;;;11.81;74.94;98814.41;5041402;28;45500;-50
2021/12/28 01:24:18;;;;;;;;;0.00;0.00;;;;;11.81;74.63;98810.00;5041166;28;45202;-47
2021/12/28 01:26:44;;;;;;;;;1.00;1.00;;;;;11.81;74.62;98817.91;5041637;28;45210;-49
2021/12/28 01:29:09;;;;;;;;;3.00;0.00;;;;;11.81;75.00;98814.41;5023486;28;46046;-47
2021/12/28 01:31:37;;;;;;;;;0.00;0.00;;;;;11.79;75.15;98817.13;5035446;28;45432;-49
2021/12/28 01:34:03;;;;;;;;;1.25;0.00;;;;;11.75;75.14;98793.66;5043056;28;45300;-47
2021/12/28 01:36:29;;;;;;;;;0.00;0.00;;;;;11.81;75.31;98811.78;5061454;28;45262;-50
2021/12/28 01:38:54;;;;;;;;;0.00;0.00;;;;;11.82;75.69;98813.47;5041703;28;45496;-50
2021/12/28 01:41:19;;;;;;;;;0.00;0.00;;;;;11.79;75.56;98809.22;5041086;28;46110;-49
2021/12/28 01:43:45;;;;;;;;;0.00;0.00;;;;;11.81;75.45;98814.41;5041247;28;45350;-50
2021/12/28 01:46:10;;;;;;;;;0.00;0.00;;;;;11.82;75.64;98813.47;5023424;28;45326;-50
2021/12/28 01:48:41;;;;;;;;;0.00;0.00;;;;;11.86;75.51;98815.03;5058732;28;45538;-49
2021/12/28 01:51:13;;;;;;;;;0.00;0.00;;;;;11.82;76.01;98829.28;5047681;28;46069;-50
2021/12/28 01:53:39;;;;;;;;;0.00;0.00;;;;;11.85;76.19;98821.25;5041078;28;45484;-47
2021/12/28 01:56:10;;;;;;;;;0.75;0.00;;;;;11.84;76.06;98820.38;5023053;28;45272;-52
2021/12/28 01:58:37;;;;;;;;;0.00;0.00;;;;;11.93;75.77;98832.22;5041078;28;45454;-48
2021/12/28 02:01:05;;;;;;;;;0.00;0.00;;;;;11.94;75.73;98833.09;5040709;28;45419;-50
2021/12/28 02:03:32;;;;;;;;;0.00;0.00;;;;;11.98;75.77;98842.56;5022573;28;45203;-51
2021/12/28 02:05:58;;;;;;;;;0.00;0.00;;;;;11.98;75.55;98856.56;5039988;28;45254;-46
2021/12/28 02:08:23;;;;;;;;;0.67;0.00;;;;;12.00;76.11;98849.44;5022885;28;45523;-51
2021/12/28 02:10:51;;;;;;;;;0.00;0.00;;;;;12.03;75.80;98859.81;5040410;28;45424;-48
2021/12/28 02:13:17;;;;;;;;;0.00;0.00;;;;;12.09;76.01;98863.06;5031913;28;45273;-50
2021/12/28 02:15:44;;;;;;;;;0.00;0.00;;;;;12.11;76.03;98887.53;5040933;28;45248;-52
2021/12/28 02:18:13;;;;;;;;;0.00;0.00;;;;;12.15;75.91;98878.56;5036862;28;45268;-48
2021/12/28 02:20:38;;;;;;;;;0.00;0.00;;;;;12.18;75.91;98883.69;5044501;28;45339;-48
2021/12/28 02:23:05;;;;;;;;;0.00;0.00;;;;;12.21;75.85;98890.56;5040535;28;45388;-50
2021/12/28 02:25:31;;;;;;;;;0.00;0.00;;;;;12.19;75.32;98899.41;5040495;28;45602;-47
2021/12/28 02:27:58;;;;;;;;;0.00;0.00;;;;;12.23;75.84;98902.72;5022572;28;45265;-50
2021/12/28 02:30:24;;;;;;;;;0.00;0.00;;;;;12.26;75.81;98915.72;5042183;28;45290;-51
2021/12/28 02:32:50;;;;;;;;;0.00;0.00;;;;;12.27;76.10;98908.69;5060366;28;45323;-48
2021/12/28 02:35:24;;;;;;;;;0.00;0.00;;;;;12.33;75.70;98908.41;5060685;28;45241;-46
2021/12/28 02:37:51;;;;;;;;;0.50;0.00;;;;;12.37;75.72;98914.38;5042372;28;45389;-49
2021/12/28 02:40:21;;;;;;;;;0.00;0.00;;;;;12.40;75.98;98915.06;5060009;28;45463;-50
2021/12/28 02:42:48;;;;;;;;;0.00;0.00;;;;;12.41;75.79;98931.72;5042412;28;45239;-48
2021/12/28 02:45:26;;;;;;;;;0.00;0.00;;;;;12.44;75.79;98928.91;5042234;28;45195;-46
2021/12/28 02:47:52;;;;;;;;;0.00;0.00;;;;;12.46;75.80;98930.53;5042676;28;45352;-47
2021/12/28 02:50:21;;;;;;;;;0.00;0.00;;;;;12.49;75.68;98961.13;5041849;28;45505;-47
2021/12/28 02:52:47;;;;;;;;;0.00;0.00;;;;;12.49;75.71;98958.50;5060350;28;45319;-48
2021/12/28 02:55:16;;;;;;;;;0.75;0.00;;;;;12.51;75.94;98965.44;5060051;28;45297;-51
2021/12/28 02:57:55;;;;;;;;;0.00;0.00;;;;;12.56;75.49;98972.25;5042050;28;45335;-46
2021/12/28 03:00:31;;;;;;;;;1.00;0.00;;;;;12.54;75.60;98971.44;5060199;28;46280;-48
2021/12/28 03:02:57;;;;;;;;;0.67;0.00;;;;;12.51;75.83;98980.38;5059797;28;45228;-46
2021/12/28 03:05:23;;;;;;;;;0.00;0.00;;;;;12.52;75.39;98987.34;5060141;28;45560;-50
2021/12/28 03:07:48;;;;;;;;;1.00;0.00;;;;;12.55;75.28;98991.59;5042015;28;45476;-49
2021/12/28 03:10:14;;;;;;;;;0.00;0.00;;;;;12.53;75.62;98989.06;5059837;28;46478;-51
2021/12/28 03:12:39;;;;;;;;;0.00;0.00;;;;;12.54;75.29;98987.25;5041935;28;45228;-47
2021/12/28 03:15:05;;;;;;;;;1.00;1.00;;;;;12.49;74.96;98985.72;5060269;28;45308;-51
2021/12/28 03:17:31;;;;;;;;;0.67;0.00;;;;;12.54;75.26;98995.16;5059390;28;45268;-48
2021/12/28 03:19:56;;;;;;;;;2.00;0.33;;;;;12.52;75.54;98992.63;5060058;28;45843;-48
2021/12/28 03:22:22;;;;;;;;;0.00;0.00;;;;;12.48;75.25;99004.25;5059851;28;45285;-47
2021/12/28 03:24:47;;;;;;;;;0.67;0.00;;;;;12.50;74.91;98991.81;5060041;28;45446;-50
2021/12/28 03:27:12;;;;;;;;;1.00;0.00;;;;;12.52;75.01;99000.50;5059792;28;45574;-50
2021/12/28 03:29:38;;;;;;;;;0.00;0.00;;;;;12.54;75.05;99000.44;5057445;28;45276;-48
2021/12/28 03:32:04;;;;;;;;;1.33;0.00;;;;;12.55;75.08;99004.78;5041216;28;45382;-47
2021/12/28 03:34:29;;;;;;;;;0.25;0.25;;;;;12.55;74.80;99016.16;5059991;28;45262;-46
2021/12/28 03:36:54;;;;;;;;;1.00;0.67;;;;;12.55;74.82;99016.16;5057346;28;45418;-51
2021/12/28 03:39:20;;;;;;;;;0.00;0.00;;;;;12.54;74.55;99019.75;5021581;28;47370;-50
2021/12/28 03:41:45;;;;;;;;;0.00;0.00;;;;;12.56;74.96;99022.31;5039306;28;45337;-51
2021/12/28 03:44:11;;;;;;;;;0.00;0.00;;;;;12.57;74.69;99024.84;5039992;28;45281;-49
2021/12/28 03:46:36;;;;;;;;;0.00;0.00;;;;;12.57;74.83;99030.13;5039420;28;45408;-49
2021/12/28 03:49:03;;;;;;;;;1.00;0.00;;;;;12.59;74.48;99036.19;5039241;28;45261;-47
2021/12/28 03:51:28;;;;;;;;;0.00;0.00;;;;;12.55;74.68;99023.22;5039278;28;45514;-48
2021/12/28 03:53:54;;;;;;;;;1.00;0.33;;;;;12.60;74.88;99031.75;5039541;28;45404;-50
2021/12/28 03:56:20;;;;;;;;;1.00;1.00;;;;;12.62;74.41;99038.66;5039132;28;45456;-48
2021/12/28 03:58:46;;;;;;;;;1.33;0.00;;;;;12.63;74.61;99047.44;5039524;28;45664;-49
2021/12/28 04:01:16;;;;;;;;;1.00;1.00;;;;;12.64;74.73;99049.09;5021196;28;45400;-50
2021/12/28 04:03:42;;;;;;;;;0.67;0.67;;;;;12.64;74.77;99034.16;5039043;28;45186;-49
2021/12/28 04:06:09;;;;;;;;;1.00;0.00;;;;;12.60;74.78;99027.34;5021109;28;45511;-52
2021/12/28 04:08:36;;;;;;;;;0.00;0.00;;;;;12.67;74.27;99052.44;5039255;28;46269;-49
2021/12/28 04:11:15;;;;;;;;;0.67;0.00;;;;;12.67;74.54;99041.91;5038961;28;45515;-51
2021/12/28 04:13:42;;;;;;;;;0.00;0.00;;;;;12.68;74.37;99053.31;5039195;28;45618;-52
2021/12/28 04:16:08;;;;;;;;;0.50;0.50;;;;;12.69;74.28;99047.09;5038908;28;45182;-50
2021/12/28 04:18:34;;;;;;;;;0.00;0.00;;;;;12.70;74.31;99047.97;5038758;28;46305;-48
2021/12/28 04:20:59;;;;;;;;;1.00;0.00;;;;;12.71;74.38;99057.59;5021096;28;45302;-50
2021/12/28 04:23:24;;;;;;;;;0.00;0.00;;;;;12.69;74.64;99060.28;5039307;28;45219;-50
2021/12/28 04:25:50;;;;;;;;;0.00;0.00;;;;;12.68;74.58;99062.06;5038876;28;45224;-46
2021/12/28 04:28:15;;;;;;;;;0.00;0.00;;;;;12.70;74.57;99050.59;5038972;28;45987;-51
2021/12/28 04:30:40;;;;;;;;;0.00;0.00;;;;;12.71;74.18;99061.06;5046802;28;45342;-49
2021/12/28 04:33:06;;;;;;;;;0.00;0.00;;;;;12.70;74.50;99072.53;5062442;28;45207;-48
2021/12/28 04:35:32;;;;;;;;;2.00;0.00;;;;;12.67;74.20;99083.22;5062263;28;45416;-52
2021/12/28 04:37:57;;;;;;;;;1.67;0.67;;;;;12.70;74.35;99084.84;5051276;28;46317;-49
2021/12/28 04:40:23;;;;;;;;;0.33;0.00;;;;;12.70;74.53;99090.97;5024126;28;45465;-47
2021/12/28 04:42:48;;;;;;;;;0.00;0.00;;;;;12.66;74.76;99079.72;5042415;28;45912;-49
2021/12/28 04:45:15;;;;;;;;;1.00;1.00;;;;;12.68;74.42;99083.16;5042115;28;45341;-47
2021/12/28 04:47:41;;;;;;;;;0.00;0.00;;;;;12.73;74.07;99084.69;5024287;28;47198;-47
2021/12/28 04:50:08;;;;;;;;;0.00;0.00;;;;;12.74;74.31;99083.78;5024054;28;45307;-50
2021/12/28 04:52:37;;;;;;;;;0.00;0.00;;;;;12.75;74.41;99080.22;5042102;28;45428;-48
2021/12/28 04:55:11;;;;;;;;;1.00;1.00;;;;;12.74;74.17;99067.97;5041698;28;45404;-48
2021/12/28 04:57:38;;;;;;;;;2.67;0.00;;;;;12.73;74.50;99075.03;5041747;28;46181;-49
2021/12/28 05:00:07;;;;;;;;;1.00;1.00;;;;;12.76;74.15;99077.50;5041708;28;45336;-48
2021/12/28 05:02:32;;;;;;;;;0.00;0.00;;;;;12.76;74.08;99085.41;5023815;28;45280;-47
2021/12/28 05:04:57;;;;;;;;;1.00;1.00;;;;;12.78;74.25;99080.03;5041614;28;45466;-50
2021/12/28 05:07:23;;;;;;;;;1.00;0.00;;;;;12.79;74.27;99081.75;5041764;28;45151;-50
2021/12/28 05:09:50;;;;;;;;;1.00;1.00;;;;;12.81;73.98;99087.81;5023549;28;45266;-48
2021/12/28 05:12:15;;;;;;;;;2.00;0.00;;;;;12.85;73.87;99105.19;5042011;28;45239;-51
2021/12/28 05:14:42;;;;;;;;;0.00;0.00;;;;;12.79;73.96;99108.13;5041538;28;45547;-47
2021/12/28 05:17:08;;;;;;;;;1.67;0.67;;;;;12.80;74.16;99112.47;5041380;28;46061;-51
2021/12/28 05:19:34;;;;;;;;;2.25;2.00;;;;;12.85;74.18;99113.09;5041358;28;45269;-47
2021/12/28 05:22:00;;;;;;;;;0.75;0.00;;;;;12.88;73.90;99115.59;5041733;28;45344;-49
2021/12/28 05:24:25;;;;;;;;;0.25;0.25;;;;;12.89;73.79;99122.53;5041273;28;45568;-48
2021/12/28 05:26:52;;;;;;;;;4.00;1.00;;;;;12.90;73.81;99132.16;5041412;28;45293;-49
2021/12/28 05:29:18;;;;;;;;;2.00;0.67;;;;;12.90;73.76;99133.97;5041288;28;45244;-52
2021/12/28 05:31:43;;;;;;;;;0.33;0.33;;;;;12.90;73.56;99134.81;5054401;28;45403;-50
2021/12/28 05:34:08;;;;;;;;;2.00;1.00;;;;;12.93;73.29;99144.34;5061510;28;45275;-48
2021/12/28 05:36:34;;;;;;;;;2.50;0.00;;;;;12.93;73.78;99149.63;5061328;28;45949;-46
2021/12/28 05:39:00;;;;;;;;;0.00;0.00;;;;;12.95;73.29;99143.34;5041311;28;45294;-47
2021/12/28 05:41:25;;;;;;;;;2.75;2.75;;;;;12.94;73.53;99146.06;5041057;28;45278;-49
2021/12/28 05:43:51;;;;;;;;;1.00;0.00;;;;;12.96;73.53;99160.03;5023398;28;45499;-49
2021/12/28 05:46:17;;;;;;;;;1.67;0.33;;;;;13.00;73.06;99157.16;5041208;28;46113;-50
2021/12/28 05:48:42;;;;;;;;;1.00;1.00;;;;;13.00;73.35;99157.16;5040886;28;45296;-49
2021/12/28 05:51:07;;;;;;;;;2.00;0.33;;;;;13.00;73.22;99157.16;5041181;28;45289;-52
2021/12/28 05:53:33;;;;;;;;;1.00;1.00;;;;;13.04;72.79;99162.28;5041040;28;45352;-50
2021/12/28 05:55:58;;;;;;;;;4.67;1.00;;;;;13.04;73.18;99171.03;5040838;28;45368;-51
2021/12/28 05:58:24;;;;;;;;;5.25;2.00;;;;;13.01;72.71;99179.09;5040958;28;45279;-50
2021/12/28 06:00:49;;;;;;;;;3.00;1.00;;;;;12.98;73.01;99177.47;5041231;28;45317;-47
2021/12/28 06:03:14;;;;;;;;;1.67;1.00;;;;;13.03;72.80;99171.13;5040762;28;45587;-52
2021/12/28 06:05:40;;;;;;;;;3.00;1.00;;;;;13.06;72.91;99170.97;5022659;28;46006;-51
2021/12/28 06:08:05;;;;;;;;;3.00;1.00;;;;;13.05;72.42;99180.66;5023019;28;45269;-50
2021/12/28 06:10:31;;;;;;;;;2.00;2.00;;;;;13.08;72.48;99177.00;5040716;28;45313;-48
2021/12/28 06:12:56;;;;;;;;;1.50;1.50;;;;;13.08;72.26;99192.84;5040797;28;45300;-49
2021/12/28 06:15:21;;;;;;;;;1.75;1.50;;;;;13.09;72.37;99197.19;5040610;28;45635;-47
2021/12/28 06:17:47;;;;;;;;;1.67;1.00;;;;;13.08;72.35;99201.63;5040255;28;45304;-50
2021/12/28 06:20:12;;;;;;;;;2.00;2.00;;;;;13.11;72.24;99195.34;5040805;28;45234;-47
2021/12/28 06:22:38;;;;;;;;;2.00;1.00;;;;;13.08;72.32;99212.16;5022559;28;45576;-50
2021/12/28 06:25:06;;;;;;;;;3.25;1.00;;;;;13.10;72.29;99204.16;5040376;28;45325;-51
2021/12/28 06:27:31;;;;;;;;;1.00;1.00;;;;;13.12;72.27;99213.72;5040448;28;45592;-50
2021/12/28 06:29:57;;;;;;;;;3.50;0.50;;;;;13.06;71.87;99198.19;5040384;28;45942;-48
2021/12/28 06:32:22;;;;;;;;;0.50;0.00;;;;;13.10;71.94;99220.00;5058755;28;45420;-47
2021/12/28 06:34:47;;;;;;;;;4.75;2.00;;;;;13.10;71.83;99220.84;5042394;28;47170;-48
2021/12/28 06:37:13;;;;;;;;;1.00;0.00;;;;;13.05;72.05;99208.81;5055364;28;45562;-50
2021/12/28 06:39:38;;;;;;;;;3.33;1.00;;;;;13.05;72.10;99259.78;5040313;28;45293;-50
2021/12/28 06:42:04;;;;;;;;;2.00;1.00;;;;;13.04;72.00;99236.13;5040235;28;45318;-52
2021/12/28 06:44:29;;;;;;;;;1.67;1.00;;;;;13.04;71.94;99241.38;5022348;28;47280;-51
2021/12/28 06:46:55;;;;;;;;;2.00;0.00;;;;;13.05;72.00;99264.19;5039933;28;45308;-50
2021/12/28 06:49:20;;;;;;;;;3.50;1.25;;;;;13.00;71.91;99254.75;5040530;28;45312;-51
2021/12/28 06:51:45;;;;;;;;;6.00;1.00;;;;;13.02;71.87;99259.94;5039442;28;45333;-52
2021/12/28 06:54:11;;;;;;;;;2.00;0.00;;;;;13.06;71.89;99256.22;5040152;28;46328;-51
2021/12/28 06:56:37;;;;;;;;;1.00;1.00;;;;;13.01;71.81;99264.31;5039966;28;45241;-51
2021/12/28 06:59:03;;;;;;;;;3.00;1.00;;;;;12.96;71.58;99276.03;5022386;28;45222;-49
2021/12/28 07:01:28;;;;;;;;;2.00;2.00;;;;;12.97;71.83;99275.97;5040066;28;45503;-51
2021/12/28 07:03:54;;;;;;;;;4.00;1.33;;;;;12.88;71.79;99273.78;5039540;28;45430;-47
2021/12/28 07:06:21;;;;;;;;;3.00;0.50;;;;;12.90;71.45;99260.50;5021984;28;45263;-51
2021/12/28 07:08:47;;;;;;;;;2.00;2.00;;;;;12.90;71.40;99261.34;5040035;28;45355;-48
2021/12/28 07:11:12;;;;;;;;;2.50;1.25;;;;;12.90;71.50;99263.13;5039773;28;45315;-49
2021/12/28 07:13:38;;;;;;;;;5.33;1.67;;;;;12.89;71.35;99269.34;5039795;28;45338;-48
2021/12/28 07:16:03;;;;;;;;;3.50;2.00;;;;;12.84;71.39;99277.44;5039572;28;45309;-51
2021/12/28 07:18:29;;;;;;;;;2.00;0.67;;;;;12.82;71.02;99274.06;5039838;28;45250;-51
2021/12/28 07:20:54;;;;;;;;;5.25;3.50;;;;;12.82;70.89;99285.44;5039721;28;45300;-49
2021/12/28 07:23:20;;;;;;;;;4.00;1.00;;;;;12.77;71.17;99273.41;5039705;28;45326;-48
2021/12/28 07:25:46;;;;;;;;;3.00;1.00;;;;;12.83;71.17;99287.16;5021568;28;45358;-49
2021/12/28 07:28:11;;;;;;;;;2.00;1.00;;;;;12.84;70.98;99277.44;5039806;28;45340;-49
2021/12/28 07:30:36;;;;;;;;;5.25;2.00;;;;;12.84;70.97;99273.06;5043274;28;45317;-48
2021/12/28 07:33:02;;;;;;;;;1.25;1.25;;;;;12.82;70.85;99292.50;5059545;28;46360;-51
2021/12/28 07:35:27;;;;;;;;;1.00;1.00;;;;;12.81;71.20;99285.53;5059534;28;45251;-47
2021/12/28 07:37:53;;;;;;;;;1.00;1.00;;;;;12.86;70.68;99296.69;5049339;28;45433;-50
2021/12/28 07:40:20;;;;;;;;;0.67;0.67;;;;;12.82;70.83;99280.16;5039323;28;45388;-50
2021/12/28 07:42:45;;;;;;;;;3.50;1.00;;;;;12.86;70.58;99280.03;5039249;28;45393;-52
2021/12/28 07:45:13;;;;;;;;;2.00;1.00;;;;;12.86;70.71;99286.16;5039301;28;45191;-51
2021/12/28 07:47:40;;;;;;;;;5.00;1.00;;;;;12.90;70.67;99302.69;5039472;28;45507;-52
2021/12/28 07:50:07;;;;;;;;;4.50;3.25;;;;;12.91;70.44;99309.69;5039224;28;45341;-49
2021/12/28 07:52:32;;;;;;;;;1.00;1.00;;;;;12.90;70.90;99290.34;5039225;28;46166;-50
2021/12/28 07:54:57;;;;;;;;;1.00;1.00;;;;;12.91;70.78;99310.53;5052436;28;45306;-50
2021/12/28 07:57:23;;;;;;;;;3.00;3.00;;;;;12.91;71.01;99318.44;5048967;28;45252;-49
2021/12/28 07:59:48;;;;;;;;;2.00;2.00;;;;;12.92;70.88;99330.69;5039114;28;45222;-49
2021/12/28 08:02:14;;;;;;;;;8.00;3.00;;;;;12.93;70.97;99327.13;5021016;28;48152;-47
2021/12/28 08:04:39;;;;;;;;;2.67;1.00;;;;;12.93;70.79;99331.53;5041115;28;45293;-50
2021/12/28 08:07:04;;;;;;;;;4.00;3.00;;;;;12.92;71.12;99330.69;5042922;28;45159;-50
2021/12/28 08:09:30;;;;;;;;;3.00;1.50;;;;;12.92;70.76;99325.41;5042492;28;45237;-49
2021/12/28 08:11:55;;;;;;;;;2.50;2.00;;;;;12.97;70.72;99327.84;5042592;28;46057;-49
2021/12/28 08:14:20;;;;;;;;;1.33;1.33;;;;;12.97;70.65;99343.66;5042372;28;45226;-49
2021/12/28 08:16:46;;;;;;;;;1.75;1.75;;;;;12.91;71.35;99342.16;5042440;28;45384;-47
2021/12/28 08:19:12;;;;;;;;;4.00;2.50;;;;;12.93;71.27;99356.13;5042261;28;45294;-49
2021/12/28 08:21:37;;;;;;;;;1.75;1.75;;;;;12.90;71.58;99363.34;5042547;28;45912;-50
2021/12/28 08:24:03;;;;;;;;;4.67;1.00;;;;;12.87;71.86;99348.50;5042094;28;45316;-48
2021/12/28 08:26:29;;;;;;;;;3.33;2.00;;;;;12.88;71.86;99350.22;5042715;28;45383;-51
2021/12/28 08:28:54;;;;;;;;;6.67;1.67;;;;;12.86;72.19;99357.34;5042089;28;45617;-47
2021/12/28 08:31:20;;;;;;;;;1.00;1.00;;;;;12.83;72.63;99358.34;5052138;28;46225;-50
2021/12/28 08:33:45;;;;;;;;;2.00;2.00;;;;;12.81;72.71;99362.81;5062005;28;45304;-49
2021/12/28 08:36:10;;;;;;;;;2.00;2.00;;;;;12.80;72.63;99365.53;5062439;28;45242;-46
2021/12/28 08:38:38;;;;;;;;;1.00;1.00;;;;;12.80;72.79;99360.25;5045682;28;45329;-47
2021/12/28 08:41:04;;;;;;;;;4.25;3.00;;;;;12.75;73.18;99378.91;5041871;28;47278;-48
2021/12/28 08:43:29;;;;;;;;;1.33;0.67;;;;;12.70;72.99;99378.25;5041986;28;45276;-49
2021/12/28 08:45:55;;;;;;;;;2.00;1.00;;;;;12.68;73.23;99395.94;5042316;28;45434;-48
2021/12/28 08:48:20;;;;;;;;;1.33;1.33;;;;;12.68;73.20;99396.78;5041788;28;45380;-47
2021/12/28 08:50:45;;;;;;;;;3.50;3.50;;;;;12.67;73.38;99404.75;5033707;28;46098;-50
2021/12/28 08:53:11;;;;;;;;;4.00;2.00;;;;;12.64;73.53;99396.97;5045710;28;45340;-50
2021/12/28 08:55:38;;;;;;;;;3.75;3.00;;;;;12.64;73.51;99421.56;5024007;28;45280;-51
2021/12/28 08:58:04;;;;;;;;;7.00;3.00;;;;;12.56;73.64;99396.47;5041679;28;45343;-48
2021/12/28 09:00:32;;;;;;;;;4.67;1.00;;;;;12.58;73.70;99413.94;5041702;28;45422;-51
2021/12/28 09:02:59;;;;;;;;;2.00;0.33;;;;;12.62;73.79;99410.22;5023690;28;45185;-52
2021/12/28 09:05:26;;;;;;;;;1.50;1.00;;;;;12.65;73.36;99404.84;5041709;28;45261;-55
2021/12/28 09:07:53;;;;;;;;;2.50;1.00;;;;;12.68;73.39;99419.66;5041680;28;45288;-52
2021/12/28 09:10:20;;;;;;;;;1.00;1.00;;;;;12.70;73.35;99412.50;5041414;28;46141;-53
2021/12/28 09:12:45;;;;;;;;;4.67;2.67;;;;;12.70;73.55;99395.88;5041543;28;45297;-50
2021/12/28 09:15:11;;;;;;;;;2.25;0.75;;;;;12.72;73.34;99405.41;5023259;28;45333;-49
2021/12/28 09:17:39;;;;;;;;;1.33;1.00;;;;;12.74;73.52;99439.59;5023389;28;45564;-51
2021/12/28 09:20:09;;;;;;;;;6.33;1.67;;;;;12.73;73.38;99430.84;5023474;28;46070;-49
2021/12/28 09:22:34;;;;;;;;;2.00;1.00;;;;;12.75;72.95;99426.34;5041344;28;45481;-50
2021/12/28 09:25:00;;;;;;;;;2.33;1.00;;;;;12.78;73.14;99443.81;5041511;28;45480;-48
2021/12/28 09:27:25;;;;;;;;;2.33;1.00;;;;;12.82;73.26;99422.53;5041435;28;45253;-51
2021/12/28 09:29:50;;;;;;;;;2.00;2.00;;;;;12.84;72.99;99431.22;5023558;28;45335;-52
2021/12/28 09:32:18;;;;;;;;;2.00;0.00;;;;;12.83;72.54;99447.97;5040892;28;45249;-50
2021/12/28 09:34:45;;;;;;;;;3.00;1.00;;;;;12.82;72.60;99429.59;5043656;28;45254;-50
2021/12/28 09:37:11;;;;;;;;;0.00;0.00;;;;;12.87;72.13;99429.38;5056225;28;45228;-49
2021/12/28 09:39:36;;;;;;;;;3.67;2.00;;;;;12.89;71.85;99430.16;5040974;28;46190;-49
2021/12/28 09:42:03;;;;;;;;;1.67;1.33;;;;;12.90;72.06;99467.00;5041217;28;45331;-47
2021/12/28 09:44:31;;;;;;;;;4.33;1.67;;;;;12.84;71.55;99419.81;5041404;28;45347;-48
2021/12/28 09:46:57;;;;;;;;;4.33;2.33;;;;;12.98;71.36;99442.91;5040854;28;45391;-49
2021/12/28 09:49:22;;;;;;;;;3.67;2.00;;;;;12.96;70.85;99445.63;5041069;28;45519;-48
2021/12/28 09:51:48;;;;;;;;;4.67;3.00;;;;;12.98;70.91;99441.16;5040881;28;45424;-50
2021/12/28 09:54:14;;;;;;;;;2.67;2.33;;;;;12.99;70.42;99449.91;5018045;28;45274;-48
2021/12/28 09:56:40;;;;;;;;;4.33;2.33;;;;;13.00;69.93;99447.22;5042650;28;45273;-48
2021/12/28 09:59:05;;;;;;;;;3.00;2.00;;;;;13.03;69.96;99450.63;5040926;28;46152;-49
2021/12/28 10:01:31;;;;;;;;;3.00;3.00;;;;;13.06;69.40;99461.06;5040731;28;45418;-49
2021/12/28 10:03:59;;;;;;;;;4.00;2.00;;;;;13.06;68.89;99454.00;5040910;28;45405;-51
2021/12/28 10:06:27;;;;;;;;;3.00;0.00;;;;;13.08;68.89;99464.47;5040830;28;45281;-49
2021/12/28 10:09:22;;;;;;;;;4.75;3.00;;;;;13.11;68.17;99486.28;5022696;28;46402;-47
2021/12/28 10:11:55;;;;;;;;;8.00;4.00;;;;;13.09;66.98;99480.22;5037277;28;45388;-49
2021/12/28 10:14:28;;;;;;;;;2.00;2.00;;;;;13.12;67.03;99463.44;5060975;28;45328;-50
2021/12/28 10:16:59;;;;;;;;;3.33;1.67;;;;;13.12;67.60;99476.63;5060637;28;45295;-48
2021/12/28 10:19:36;;;;;;;;;6.00;2.00;;;;;13.14;66.94;99465.06;5060694;28;46420;-50
2021/12/28 10:22:23;;;;;;;;;7.00;1.50;;;;;13.17;66.86;99482.53;5060704;28;45218;-47
2021/12/28 10:24:55;;;;;;;;;7.00;3.75;;;;;13.16;66.29;99467.63;5060733;28;45341;-49
2021/12/28 10:27:24;;;;;;;;;5.00;4.50;;;;;13.16;66.33;99486.09;5059474;28;45189;-51
2021/12/28 10:29:50;;;;;;;;;2.50;1.50;;;;;13.20;65.92;99506.13;5056428;28;46067;-46
2021/12/28 10:32:28;;;;;;;;;6.50;4.00;;;;;13.20;66.43;99489.47;5057796;28;45335;-50
2021/12/28 10:34:57;;;;;;;;;3.75;3.00;;;;;13.20;66.22;99485.03;5060565;28;45321;-49
2021/12/28 10:37:32;;;;;;;;;5.75;4.00;;;;;13.25;66.07;99487.47;5053850;28;45305;-48
2021/12/28 10:40:00;;;;;;;;;8.25;4.75;;;;;13.27;66.02;99489.09;5040020;28;46103;-51
2021/12/28 10:42:45;;;;;;;;;6.00;2.75;;;;;13.32;66.42;99524.06;5040414;28;45468;-48
2021/12/28 10:45:22;;;;;;;;;8.25;4.00;;;;;13.30;65.69;99496.88;5040103;28;45341;-48
2021/12/28 10:47:50;;;;;;;;;2.50;2.50;;;;;13.30;65.27;99501.31;5039933;28;45499;-47
2021/12/28 10:50:25;;;;;;;;;5.33;4.00;;;;;13.31;66.15;99519.69;5039897;28;46261;-51
2021/12/28 10:53:01;;;;;;;;;7.25;3.75;;;;;13.28;66.07;99514.56;5040017;28;45309;-49
2021/12/28 10:55:28;;;;;;;;;11.25;4.25;;;;;13.32;65.67;99492.38;5040142;28;45230;-48
2021/12/28 10:57:54;;;;;;;;;6.50;4.00;;;;;13.32;65.29;99502.94;5039791;28;45553;-46
2021/12/28 11:00:25;;;;;;;;;8.75;5.25;;;;;13.32;65.94;99510.00;5039925;28;46018;-48
2021/12/28 11:02:52;;;;;;;;;4.00;3.00;;;;;13.36;65.47;99510.69;5039957;28;45246;-50
2021/12/28 11:05:34;;;;;;;;;9.00;4.00;;;;;13.39;65.51;99515.91;5039899;28;45474;-49
2021/12/28 11:08:00;;;;;;;;;6.00;4.50;;;;;13.39;65.32;99511.47;5022013;28;45961;-47
2021/12/28 11:10:28;;;;;;;;;6.50;4.00;;;;;13.39;65.28;99518.53;5039703;28;45993;-51
2021/12/28 11:12:55;;;;;;;;;5.00;5.00;;;;;13.42;65.85;99518.38;5022054;28;45365;-49
2021/12/28 11:15:25;;;;;;;;;6.00;1.50;;;;;13.43;65.66;99509.53;5040028;28;45317;-50
2021/12/28 11:17:52;;;;;;;;;7.00;2.50;;;;;13.43;66.12;99515.69;5039672;28;45183;-50
2021/12/28 11:20:29;;;;;;;;;10.25;6.75;;;;;13.40;65.67;99512.34;5039700;28;46409;-49
2021/12/28 11:23:18;;;;;;;;;6.00;2.00;;;;;13.43;65.75;99517.47;5039862;28;45374;-50
2021/12/28 11:25:43;;;;;;;;;6.25;4.75;;;;;13.45;65.68;99520.91;5039574;28;45169;-46
2021/12/28 11:28:18;;;;;;;;;6.25;2.75;;;;;13.46;65.35;99520.81;5039644;28;45384;-51
2021/12/28 11:31:01;;;;;;;;;5.50;4.25;;;;;13.48;65.08;99531.28;5044191;28;45191;-51
2021/12/28 11:33:40;;;;;;;;;9.00;4.33;;;;;13.50;65.32;99537.38;5059282;28;45469;-45
2021/12/28 11:36:05;;;;;;;;;8.00;4.00;;;;;13.51;65.72;99541.72;5059784;28;45224;-47